Terminal Aerodrome Forecast
Issued by NWS

Home | Current Version | Previous Version | Graphics & Text | Print | Product List | Glossary Off
Versions: 1 2 3 4 5 6 7 8 9 10 11 12 13

000
FTUS43 KFGF 051123
TAFBJI
TAF
KBJI 051123Z 0512/0612 VRB03KT P6SM SCT250
      TEMPO 0512/0513 1SM BR BKN007
     FM051800 15011KT P6SM BKN250=

USA.gov is the U.S. government's official web portal to all federal, state and local government web resources and services.